Albany, Minnesota
Current Conditions -  °F | °C
As of 11:33 PM on Wednesday 22 Oct 2014 (Local Time) from KD39 Reporting Station
Light Rain Light Rain  
Wind Chill: 11°   Ceiling: 800
Heat Index: 11°   Visibility: 10mi
Dew Point: 11°   Wind: 9mph
Humidity: 96%   Direction: 180°S
Pressure: 29.96"   Gusts: NA
Location:  45.63°N, 94.57°W
Report Text: KD39 230433Z AUTO 18008KT 10SM -RA OVC008 11/11 A2996 RMK AO2 P0002 T01110105
Loading
Personal Weather Stations






























Interactive Weather Map
Tropical Storm Tracking
New forecast layout! Learn more

10-Day Weather Forecast

Advertisements
Track Severe Weather on mobile